Time,TemperatureF,DewpointF,PressureIn,WindDirection,WindDirectionDegrees,WindSpeedMPH,WindSpeedGustMPH,Humidity,HourlyPrecipIn,Conditions,Clouds,dailyrainin,SoftwareType,DateUTC
2013-06-01 00:14:00,73.1,63.0,29.98,WNW,283,0.0,0.0,71,0.00,,,0.00,weatherlink.com 1.10,2013-06-01 04:14:00,
2013-06-01 00:29:00,72.3,63.0,29.98,WNW,283,0.0,1.0,73,0.00,,,0.00,weatherlink.com 1.10,2013-06-01 04:29:00,
2013-06-01 00:44:00,71.8,63.0,29.98,WNW,283,0.0,0.0,74,0.00,,,0.00,weatherlink.com 1.10,2013-06-01 04:44:00,
2013-06-01 00:59:00,71.6,63.0,29.98,WNW,283,0.0,0.0,74,0.00,,,0.00,weatherlink.com 1.10,2013-06-01 04:59:00,
2013-06-01 01:14:00,70.8,63.0,29.98,WNW,283,0.0,0.0,77,0.00,,,0.00,weatherlink.com 1.10,2013-06-01 05:14:00,
2013-06-01 01:29:00,70.4,63.0,29.98,WNW,283,0.0,0.0,77,0.00,,,0.00,weatherlink.com 1.10,2013-06-01 05:29:00,
2013-06-01 01:44:00,70.1,63.0,29.98,WNW,283,0.0,0.0,78,0.00,,,0.00,weatherlink.com 1.10,2013-06-01 05:44:00,
2013-06-01 01:59:00,69.7,63.0,29.97,WNW,283,0.0,0.0,79,0.00,,,0.00,weatherlink.com 1.10,2013-06-01 05:59:00,
2013-06-01 02:14:00,69.1,63.0,29.97,WNW,283,0.0,0.0,80,0.00,,,0.00,weatherlink.com 1.10,2013-06-01 06:14:00,
2013-06-01 02:29:00,68.5,63.0,29.97,WNW,283,0.0,0.0,82,0.00,,,0.00,weatherlink.com 1.10,2013-06-01 06:29:00,
2013-06-01 02:44:00,68.0,63.0,29.96,WNW,283,0.0,0.0,84,0.00,,,0.00,weatherlink.com 1.10,2013-06-01 06:44:00,
2013-06-01 02:59:00,67.8,63.0,29.96,WNW,283,0.0,0.0,84,0.00,,,0.00,weatherlink.com 1.10,2013-06-01 06:59:00,
2013-06-01 03:14:00,67.5,63.0,29.97,WNW,283,0.0,0.0,85,0.00,,,0.00,weatherlink.com 1.10,2013-06-01 07:14:00,
2013-06-01 03:29:00,67.3,63.0,29.96,WNW,283,0.0,1.0,86,0.00,,,0.00,weatherlink.com 1.10,2013-06-01 07:29:00,
2013-06-01 03:44:00,66.9,63.0,29.97,WNW,283,0.0,0.0,86,0.00,,,0.00,weatherlink.com 1.10,2013-06-01 07:44:00,
2013-06-01 03:59:00,66.6,63.0,29.96,WNW,283,0.0,0.0,87,0.00,,,0.00,weatherlink.com 1.10,2013-06-01 07:59:00,
2013-06-01 04:14:00,66.3,63.0,29.96,WNW,283,0.0,0.0,88,0.00,,,0.00,weatherlink.com 1.10,2013-06-01 08:14:00,
2013-06-01 04:29:00,66.1,63.0,29.97,WNW,283,0.0,0.0,89,0.00,,,0.00,weatherlink.com 1.10,2013-06-01 08:29:00,
2013-06-01 04:44:00,65.9,63.0,29.97,WNW,283,0.0,1.0,90,0.00,,,0.00,weatherlink.com 1.10,2013-06-01 08:44:00,
2013-06-01 04:59:00,65.7,63.0,29.97,WNW,283,0.0,1.0,90,0.00,,,0.00,weatherlink.com 1.10,2013-06-01 08:59:00,
2013-06-01 05:14:00,65.6,63.0,29.97,WNW,283,0.0,1.0,90,0.00,,,0.00,weatherlink.com 1.10,2013-06-01 09:14:00,
2013-06-01 05:29:00,65.2,63.0,29.97,WNW,283,0.0,0.0,91,0.00,,,0.00,weatherlink.com 1.10,2013-06-01 09:29:00,
2013-06-01 05:44:00,64.9,63.0,29.97,WNW,283,0.0,1.0,92,0.00,,,0.00,weatherlink.com 1.10,2013-06-01 09:44:00,
2013-06-01 05:59:00,64.9,63.0,29.97,WNW,283,0.0,0.0,93,0.00,,,0.00,weatherlink.com 1.10,2013-06-01 09:59:00,
2013-06-01 06:14:00,65.7,64.0,29.97,WNW,283,0.0,0.0,94,0.00,,,0.00,weatherlink.com 1.10,2013-06-01 10:14:00,
2013-06-01 06:29:00,66.4,65.0,29.97,WNW,283,0.0,1.0,94,0.00,,,0.00,weatherlink.com 1.10,2013-06-01 10:29:00,
2013-06-01 06:44:00,66.8,65.0,29.97,WNW,283,0.0,0.0,93,0.00,,,0.00,weatherlink.com 1.10,2013-06-01 10:44:00,
2013-06-01 07:14:00,68.3,66.0,29.97,WNW,283,0.0,0.0,92,0.00,,,0.00,weatherlink.com 1.10,2013-06-01 11:14:00,
2013-06-01 07:29:00,69.2,67.0,29.97,WNW,283,0.0,1.0,92,0.00,,,0.00,weatherlink.com 1.10,2013-06-01 11:29:00,
2013-06-01 07:44:00,69.9,67.0,29.98,WNW,284,0.0,2.0,91,0.00,,,0.00,weatherlink.com 1.10,2013-06-01 11:44:00,
2013-06-01 07:59:00,70.8,68.0,29.98,WNW,285,0.0,4.0,90,0.00,,,0.00,weatherlink.com 1.10,2013-06-01 11:59:00,
2013-06-01 08:14:00,71.8,69.0,29.97,WNW,300,0.0,3.0,89,0.00,,,0.00,weatherlink.com 1.10,2013-06-01 12:14:00,
2013-06-01 08:29:00,73.0,69.0,29.98,WNW,303,0.0,2.0,87,0.00,,,0.00,weatherlink.com 1.10,2013-06-01 12:29:00,
2013-06-01 08:44:00,74.1,69.0,29.97,West,281,0.0,4.0,84,0.00,,,0.00,weatherlink.com 1.10,2013-06-01 12:44:00,
2013-06-01 08:59:00,75.1,69.0,29.98,NW,318,0.0,5.0,82,0.00,,,0.00,weatherlink.com 1.10,2013-06-01 12:59:00,
2013-06-01 09:15:00,76.2,70.0,29.97,West,275,0.0,3.0,81,0.00,,,0.00,weatherlink.com 1.10,2013-06-01 13:15:00,
2013-06-01 09:30:00,76.9,70.0,29.97,NNW,347,0.0,3.0,78,0.00,,,0.00,weatherlink.com 1.10,2013-06-01 13:30:00,
2013-06-01 09:45:00,77.6,70.0,29.96,NW,313,1.0,4.0,77,0.00,,,0.00,weatherlink.com 1.10,2013-06-01 13:45:00,
2013-06-01 10:00:00,78.6,70.0,29.96,West,259,0.0,5.0,75,0.00,,,0.00,weatherlink.com 1.10,2013-06-01 14:00:00,
2013-06-01 10:15:00,79.6,70.0,29.96,NW,311,0.0,4.0,73,0.00,,,0.00,weatherlink.com 1.10,2013-06-01 14:15:00,
2013-06-01 10:30:00,80.7,71.0,29.96,WSW,241,0.0,2.0,73,0.00,,,0.00,weatherlink.com 1.10,2013-06-01 14:30:00,
2013-06-01 10:45:00,81.7,71.0,29.95,WSW,247,0.0,3.0,71,0.00,,,0.00,weatherlink.com 1.10,2013-06-01 14:45:00,
2013-06-01 11:00:00,82.6,71.0,29.95,West,267,0.0,3.0,68,0.00,,,0.00,weatherlink.com 1.10,2013-06-01 15:00:00,
2013-06-01 11:15:00,83.3,71.0,29.94,WNW,284,0.0,4.0,66,0.00,,,0.00,weatherlink.com 1.10,2013-06-01 15:15:00,
2013-06-01 11:30:00,83.9,70.0,29.95,SE,130,1.0,4.0,64,0.00,,,0.00,weatherlink.com 1.10,2013-06-01 15:30:00,
2013-06-01 11:45:00,84.3,70.0,29.94,West,273,0.0,5.0,62,0.00,,,0.00,weatherlink.com 1.10,2013-06-01 15:45:00,
2013-06-01 12:00:00,85.0,69.0,29.94,NNE,28,0.0,4.0,59,0.00,,,0.00,weatherlink.com 1.10,2013-06-01 16:00:00,
2013-06-01 12:15:00,86.0,69.0,29.94,SW,226,0.0,5.0,58,0.00,,,0.00,weatherlink.com 1.10,2013-06-01 16:15:00,
2013-06-01 12:30:00,87.0,71.0,29.93,NE,53,1.0,5.0,59,0.00,,,0.00,weatherlink.com 1.10,2013-06-01 16:30:00,
2013-06-01 12:45:00,87.6,70.0,29.93,SSW,195,4.0,6.0,56,0.00,,,0.00,weatherlink.com 1.10,2013-06-01 16:45:00,
2013-06-01 13:00:00,87.8,70.0,29.92,NNE,19,0.0,6.0,55,0.00,,,0.00,weatherlink.com 1.10,2013-06-01 17:00:00,
2013-06-01 13:15:00,88.9,70.0,29.91,WNW,284,2.0,7.0,53,0.00,,,0.00,weatherlink.com 1.10,2013-06-01 17:15:00,
2013-06-01 13:30:00,89.3,69.0,29.91,NW,315,1.0,9.0,52,0.00,,,0.00,weatherlink.com 1.10,2013-06-01 17:30:00,
2013-06-01 13:45:00,89.4,69.0,29.91,SW,221,0.0,8.0,52,0.00,,,0.00,weatherlink.com 1.10,2013-06-01 17:45:00,
2013-06-01 14:00:00,89.5,71.0,29.91,WSW,253,0.0,5.0,54,0.00,,,0.00,weatherlink.com 1.10,2013-06-01 18:00:00,
2013-06-01 14:15:00,90.1,69.0,29.90,SSE,163,0.0,5.0,50,0.00,,,0.00,weatherlink.com 1.10,2013-06-01 18:15:00,
2013-06-01 14:30:00,90.2,69.0,29.90,NW,317,1.0,1.0,50,0.00,,,0.00,Wunderground v.1.15,2013-06-01 18:30:00,
2013-06-01 14:40:00,90.1,69.0,29.89,WNW,300,1.0,1.0,50,0.00,,,0.00,Wunderground v.1.15,2013-06-01 18:40:00,
2013-06-01 14:46:00,90.5,69.0,29.89,SW,216,2.0,4.0,50,0.00,,,0.00,weatherlink.com 1.10,2013-06-01 18:46:00,
2013-06-01 15:00:00,90.8,70.2,29.89,NW,308,1.0,1.0,51,0.00,,,0.00,Wunderground v.1.15,2013-06-01 19:00:00,
2013-06-01 15:10:00,90.8,71.9,29.88,South,186,1.0,2.0,54,0.00,,,0.00,Wunderground v.1.15,2013-06-01 19:10:00,
2013-06-01 15:17:00,90.7,71.0,29.88,South,180,2.0,5.0,52,0.00,,,0.00,weatherlink.com 1.10,2013-06-01 19:17:00,
2013-06-01 15:30:00,89.8,70.4,29.88,South,176,1.0,1.0,53,0.00,,,0.00,Wunderground v.1.15,2013-06-01 19:30:00,
2013-06-01 15:40:00,89.5,71.2,29.88,NW,305,1.0,4.0,55,0.00,,,0.00,Wunderground v.1.15,2013-06-01 19:40:00,
2013-06-01 15:46:00,89.9,70.0,29.88,NW,321,0.0,6.0,53,0.00,,,0.00,weatherlink.com 1.10,2013-06-01 19:46:00,
2013-06-01 16:00:00,90.1,71.2,29.89,WSW,252,2.0,2.0,54,0.00,,,0.00,Wunderground v.1.15,2013-06-01 20:00:00,
2013-06-01 16:10:00,90.4,70.4,29.89,WSW,240,1.0,1.0,52,0.00,,,0.00,Wunderground v.1.15,2013-06-01 20:10:00,
2013-06-01 16:16:00,90.5,72.0,29.89,NNE,25,0.0,4.0,54,0.00,,,0.00,weatherlink.com 1.10,2013-06-01 20:16:00,
2013-06-01 16:30:00,91.6,71.5,29.88,WSW,250,0.0,1.0,52,0.00,,,0.00,Wunderground v.1.15,2013-06-01 20:30:00,
2013-06-01 16:40:00,91.4,71.3,29.88,NW,311,1.0,1.0,52,0.00,,,0.00,Wunderground v.1.15,2013-06-01 20:40:00,
2013-06-01 16:47:00,90.7,71.0,29.88,WNW,301,1.0,7.0,52,0.00,,,0.00,weatherlink.com 1.10,2013-06-01 20:47:00,
2013-06-01 17:00:00,89.6,70.2,29.88,NNE,32,0.0,0.0,53,0.00,,,0.00,Wunderground v.1.15,2013-06-01 21:00:00,
2013-06-01 17:10:00,89.2,69.8,29.87,WNW,295,0.0,0.0,53,0.00,,,0.00,Wunderground v.1.15,2013-06-01 21:10:00,
2013-06-01 17:17:00,88.6,70.0,29.88,WNW,301,0.0,4.0,55,0.00,,,0.00,weatherlink.com 1.10,2013-06-01 21:17:00,
2013-06-01 17:30:00,87.2,70.1,29.87,West,267,1.0,1.0,57,0.00,,,0.00,Wunderground v.1.15,2013-06-01 21:30:00,
2013-06-01 17:40:00,86.5,70.0,29.87,NNW,342,0.0,0.0,58,0.00,,,0.00,Wunderground v.1.15,2013-06-01 21:40:00,
2013-06-01 17:47:00,86.2,70.0,29.87,NNW,331,0.0,4.0,59,0.00,,,0.00,weatherlink.com 1.10,2013-06-01 21:47:00,
2013-06-01 18:00:00,85.8,70.8,29.87,NW,305,0.0,0.0,61,0.00,,,0.00,Wunderground v.1.15,2013-06-01 22:00:00,
2013-06-01 18:10:00,85.6,70.6,29.86,NW,313,0.0,0.0,61,0.00,,,0.00,Wunderground v.1.15,2013-06-01 22:10:00,
2013-06-01 18:18:00,85.4,71.0,29.86,NW,313,0.0,1.0,62,0.00,,,0.00,weatherlink.com 1.10,2013-06-01 22:18:00,
2013-06-01 18:30:00,85.1,70.1,29.86,NW,313,0.0,0.0,61,0.00,,,0.00,Wunderground v.1.15,2013-06-01 22:30:00,
2013-06-01 18:40:00,85.1,70.6,29.86,NW,313,0.0,0.0,62,0.00,,,0.00,Wunderground v.1.15,2013-06-01 22:40:00,
2013-06-01 18:47:00,85.3,71.0,29.86,NW,313,0.0,1.0,62,0.00,,,0.00,weatherlink.com 1.10,2013-06-01 22:47:00,
2013-06-01 19:00:00,85.8,70.8,29.86,West,279,0.0,0.0,61,0.00,,,0.00,Wunderground v.1.15,2013-06-01 23:00:00,
2013-06-01 19:10:00,85.8,70.3,29.86,West,279,0.0,0.0,60,0.00,,,0.00,Wunderground v.1.15,2013-06-01 23:10:00,
2013-06-01 19:17:00,85.6,70.0,29.86,West,279,0.0,0.0,60,0.00,,,0.00,weatherlink.com 1.10,2013-06-01 23:17:00,
2013-06-01 19:30:00,85.4,69.9,29.86,West,279,0.0,0.0,60,0.00,,,0.00,Wunderground v.1.15,2013-06-01 23:30:00,
2013-06-01 19:40:00,84.9,69.9,29.87,West,279,0.0,0.0,61,0.00,,,0.00,Wunderground v.1.15,2013-06-01 23:40:00,
2013-06-01 19:48:00,84.3,69.0,29.87,West,279,0.0,0.0,61,0.00,,,0.00,weatherlink.com 1.10,2013-06-01 23:48:00,
2013-06-01 20:00:00,83.2,69.3,29.87,West,279,0.0,0.0,63,0.00,,,0.00,Wunderground v.1.15,2013-06-02 00:00:00,
2013-06-01 20:10:00,82.6,68.3,29.86,West,279,0.0,0.0,62,0.00,,,0.00,Wunderground v.1.15,2013-06-02 00:10:00,
2013-06-01 20:18:00,82.2,68.0,29.87,West,279,0.0,0.0,62,0.00,,,0.00,weatherlink.com 1.10,2013-06-02 00:18:00,
2013-06-01 20:30:00,81.7,67.4,29.87,West,279,0.0,0.0,62,0.00,,,0.00,Wunderground v.1.15,2013-06-02 00:30:00,
2013-06-01 20:40:00,81.4,67.1,29.87,West,279,0.0,0.0,62,0.00,,,0.00,Wunderground v.1.15,2013-06-02 00:40:00,
2013-06-01 20:48:00,81.1,67.0,29.88,West,279,0.0,1.0,63,0.00,,,0.00,weatherlink.com 1.10,2013-06-02 00:48:00,
2013-06-01 21:00:00,80.7,66.9,29.87,West,279,0.0,0.0,63,0.00,,,0.00,Wunderground v.1.15,2013-06-02 01:00:00,
2013-06-01 21:10:00,80.5,66.3,29.88,West,279,0.0,0.0,62,0.00,,,0.00,Wunderground v.1.15,2013-06-02 01:10:00,
2013-06-01 21:19:00,80.5,66.0,29.88,West,279,0.0,0.0,62,0.00,,,0.00,weatherlink.com 1.10,2013-06-02 01:19:00,
2013-06-01 21:30:00,80.3,66.6,29.87,West,279,0.0,0.0,63,0.00,,,0.00,Wunderground v.1.15,2013-06-02 01:30:00,
2013-06-01 21:40:00,80.1,66.8,29.87,West,279,0.0,0.0,64,0.00,,,0.00,Wunderground v.1.15,2013-06-02 01:40:00,
2013-06-01 21:49:00,79.7,67.0,29.88,West,279,0.0,1.0,65,0.00,,,0.00,weatherlink.com 1.10,2013-06-02 01:49:00,
2013-06-01 22:00:00,79.4,67.9,29.88,West,279,0.0,0.0,68,0.00,,,0.00,Wunderground v.1.15,2013-06-02 02:00:00,
2013-06-01 22:10:00,79.2,68.1,29.88,West,279,0.0,0.0,69,0.00,,,0.00,Wunderground v.1.15,2013-06-02 02:10:00,
2013-06-01 22:19:00,79.0,69.0,29.88,West,279,0.0,1.0,71,0.00,,,0.00,weatherlink.com 1.10,2013-06-02 02:19:00,
2013-06-01 22:30:00,78.7,69.3,29.88,West,279,0.0,0.0,73,0.00,,,0.00,Wunderground v.1.15,2013-06-02 02:30:00,
2013-06-01 22:40:00,78.3,69.3,29.88,West,279,0.0,0.0,74,0.00,,,0.00,Wunderground v.1.15,2013-06-02 02:40:00,
2013-06-01 22:49:00,78.2,70.0,29.88,West,279,0.0,1.0,75,0.00,,,0.00,weatherlink.com 1.10,2013-06-02 02:49:00,
2013-06-01 23:00:00,78.0,69.8,29.88,West,280,0.0,0.0,76,0.00,,,0.00,Wunderground v.1.15,2013-06-02 03:00:00,
2013-06-01 23:10:00,78.0,70.2,29.88,West,280,0.0,0.0,77,0.00,,,0.00,Wunderground v.1.15,2013-06-02 03:10:00,
2013-06-01 23:20:00,77.8,70.0,29.87,West,280,0.0,0.0,77,0.00,,,0.00,Wunderground v.1.15,2013-06-02 03:20:00,
2013-06-01 23:30:00,77.6,69.8,29.88,West,280,0.0,0.0,77,0.00,,,0.00,Wunderground v.1.15,2013-06-02 03:30:00,
2013-06-01 23:35:00,77.5,70.0,29.88,West,280,0.0,1.0,78,0.00,,,0.00,weatherlink.com 1.10,2013-06-02 03:35:00,
2013-06-01 23:49:00,77.1,70.0,29.88,West,280,0.0,0.0,79,0.00,,,0.00,weatherlink.com 1.10,2013-06-02 03:49:00,